createdAt,value
2023-08-31T00:01:36.624Z,1.35
2023-08-31T00:04:05.205Z,1.80
2023-08-31T00:06:31.901Z,1.50
2023-08-31T00:08:58.591Z,2.30
2023-08-31T00:11:27.076Z,2.33
2023-08-31T00:13:53.799Z,2.03
2023-08-31T00:16:26.875Z,1.15
2023-08-31T00:18:54.208Z,1.20
2023-08-31T00:21:22.318Z,1.58
2023-08-31T00:23:49.570Z,2.15
2023-08-31T00:26:16.321Z,1.60
2023-08-31T00:28:43.998Z,1.90
2023-08-31T00:31:10.757Z,1.48
2023-08-31T00:33:39.689Z,1.23
2023-08-31T00:36:06.557Z,1.60
2023-08-31T00:38:33.373Z,1.55
2023-08-31T00:41:01.541Z,1.40
2023-08-31T00:43:29.050Z,1.35
2023-08-31T00:45:59.443Z,1.50
2023-08-31T00:48:26.602Z,1.40
2023-08-31T00:50:53.579Z,1.60
2023-08-31T00:53:20.379Z,1.25
2023-08-31T00:55:47.316Z,1.15
2023-08-31T00:58:14.789Z,1.50
2023-08-31T01:00:48.215Z,1.45
2023-08-31T01:03:29.150Z,1.40
2023-08-31T01:06:22.122Z,1.55
2023-08-31T01:09:15.524Z,1.65
2023-08-31T01:12:06.678Z,1.55
2023-08-31T01:14:40.844Z,1.70
2023-08-31T01:17:10.126Z,2.42
2023-08-31T01:19:56.726Z,1.65
2023-08-31T01:22:43.591Z,1.80
2023-08-31T01:25:10.974Z,1.60
2023-08-31T01:27:38.734Z,1.85
2023-08-31T01:30:06.777Z,2.15
2023-08-31T01:32:34.122Z,2.10
2023-08-31T01:35:05.381Z,1.95
2023-08-31T01:37:44.959Z,1.80
2023-08-31T01:40:26.005Z,2.10
2023-08-31T01:42:53.176Z,2.17
2023-08-31T01:45:24.070Z,2.05
2023-08-31T01:47:50.877Z,1.98
2023-08-31T01:50:18.136Z,1.95
2023-08-31T01:52:44.772Z,1.90
2023-08-31T01:55:12.025Z,2.20
2023-08-31T01:57:38.634Z,2.30
2023-08-31T02:00:07.205Z,2.00
2023-08-31T02:02:34.563Z,2.38
2023-08-31T02:05:02.928Z,2.65
2023-08-31T02:07:29.631Z,2.20
2023-08-31T02:09:56.467Z,2.70
2023-08-31T02:12:23.536Z,2.40
2023-08-31T02:14:50.861Z,2.60
2023-08-31T02:17:17.608Z,2.28
2023-08-31T02:19:44.227Z,2.65
2023-08-31T02:22:10.835Z,2.63
2023-08-31T02:24:37.558Z,2.63
2023-08-31T02:27:04.569Z,2.22
2023-08-31T02:29:31.218Z,2.50
2023-08-31T02:31:57.858Z,2.55
2023-08-31T02:34:24.567Z,2.60
2023-08-31T02:36:51.252Z,2.70
2023-08-31T02:39:17.874Z,2.60
2023-08-31T02:41:44.715Z,2.53
2023-08-31T02:44:12.624Z,3.03
2023-08-31T02:46:39.956Z,2.80
2023-08-31T02:49:07.015Z,2.80
2023-08-31T02:51:33.629Z,2.75
2023-08-31T02:54:00.360Z,3.00
2023-08-31T02:56:26.963Z,2.80
2023-08-31T02:58:53.582Z,3.30
2023-08-31T03:01:20.376Z,2.83
2023-08-31T03:03:47.847Z,3.58
2023-08-31T03:06:14.607Z,3.22
2023-08-31T03:08:41.347Z,3.58
2023-08-31T03:11:08.490Z,3.22
2023-08-31T03:13:35.367Z,3.28
2023-08-31T03:16:02.799Z,3.90
2023-08-31T03:18:30.288Z,4.00
2023-08-31T03:20:57.407Z,3.70
2023-08-31T03:23:24.004Z,4.20
2023-08-31T03:25:50.695Z,4.00
2023-08-31T03:28:17.374Z,4.10
2023-08-31T03:30:46.421Z,5.07
2023-08-31T03:33:13.951Z,3.70
2023-08-31T03:35:40.897Z,3.88
2023-08-31T03:38:07.837Z,3.95
2023-08-31T03:40:34.455Z,4.55
2023-08-31T03:43:01.356Z,4.32
2023-08-31T03:45:28.105Z,4.10
2023-08-31T03:47:55.050Z,4.70
2023-08-31T03:50:21.834Z,4.45
2023-08-31T03:52:48.510Z,4.40
2023-08-31T03:55:15.305Z,4.18
2023-08-31T03:57:41.990Z,4.40
2023-08-31T04:00:13.866Z,4.32
2023-08-31T04:02:40.645Z,5.32
2023-08-31T04:05:07.728Z,4.90
2023-08-31T04:07:36.321Z,4.88
2023-08-31T04:10:05.009Z,5.72
2023-08-31T04:12:31.959Z,6.10
2023-08-31T04:14:58.726Z,6.53
2023-08-31T04:17:25.609Z,6.50
2023-08-31T04:19:52.286Z,6.25
2023-08-31T04:22:19.127Z,6.80
2023-08-31T04:24:46.858Z,6.55
2023-08-31T04:27:13.588Z,7.00
2023-08-31T04:29:40.283Z,6.55
2023-08-31T04:32:06.951Z,6.82
2023-08-31T04:34:34.762Z,7.28
2023-08-31T04:37:04.374Z,6.38
2023-08-31T04:39:31.009Z,6.68
2023-08-31T04:41:57.672Z,6.97
2023-08-31T04:44:24.362Z,6.55
2023-08-31T04:46:51.024Z,6.63
2023-08-31T04:49:17.733Z,6.32
2023-08-31T04:51:45.618Z,6.20
2023-08-31T04:54:12.744Z,6.40
2023-08-31T04:56:41.586Z,6.13
2023-08-31T04:59:08.369Z,6.15
2023-08-31T05:01:35.166Z,5.55
2023-08-31T05:04:01.932Z,5.70
2023-08-31T05:06:28.663Z,5.75
2023-08-31T05:08:55.336Z,5.75
2023-08-31T05:11:21.999Z,6.68
2023-08-31T05:13:49.595Z,5.97
2023-08-31T05:16:17.436Z,5.35
2023-08-31T05:18:44.219Z,5.43
2023-08-31T05:21:10.797Z,5.47
2023-08-31T05:23:37.813Z,5.80
2023-08-31T05:26:04.589Z,5.53
2023-08-31T05:28:31.358Z,4.90
2023-08-31T05:30:59.269Z,5.22
2023-08-31T05:33:28.556Z,4.75
2023-08-31T05:35:55.877Z,4.63
2023-08-31T05:38:22.489Z,4.18
2023-08-31T05:40:49.253Z,5.20
2023-08-31T05:43:17.082Z,4.10
2023-08-31T05:45:44.184Z,4.45
2023-08-31T05:48:11.257Z,4.47
2023-08-31T05:50:38.123Z,4.70
2023-08-31T05:53:05.603Z,3.90
2023-08-31T05:55:33.904Z,3.75
2023-08-31T05:58:01.843Z,3.92
2023-08-31T06:00:28.774Z,4.18
2023-08-31T06:02:55.834Z,3.72
2023-08-31T06:05:22.626Z,4.13
2023-08-31T06:07:49.256Z,5.00
2023-08-31T06:10:16.551Z,5.28
2023-08-31T06:12:43.281Z,5.30
2023-08-31T06:15:10.446Z,5.63
2023-08-31T06:17:38.299Z,4.95
2023-08-31T06:20:06.854Z,5.00
2023-08-31T06:22:33.667Z,5.30
2023-08-31T06:25:00.948Z,5.18
2023-08-31T06:27:27.849Z,4.88
2023-08-31T06:29:54.521Z,4.88
2023-08-31T06:32:21.386Z,4.72
2023-08-31T06:34:48.351Z,5.00
2023-08-31T06:37:15.119Z,4.60
2023-08-31T06:39:42.408Z,4.80
2023-08-31T06:42:09.253Z,4.55
2023-08-31T06:44:36.968Z,5.55
2023-08-31T06:47:04.475Z,5.10
2023-08-31T06:49:33.962Z,5.43
2023-08-31T06:52:01.738Z,5.00
2023-08-31T06:54:28.468Z,5.22
2023-08-31T06:56:55.219Z,4.90
2023-08-31T06:59:21.843Z,4.47
2023-08-31T07:01:48.616Z,4.40
2023-08-31T07:04:15.421Z,4.75
2023-08-31T07:06:42.196Z,4.07
2023-08-31T07:09:09.594Z,4.50
2023-08-31T07:11:36.305Z,3.97
2023-08-31T07:14:03.306Z,4.30
2023-08-31T07:16:30.105Z,4.70
2023-08-31T07:18:56.976Z,4.32
2023-08-31T07:21:24.001Z,4.60
2023-08-31T07:23:50.786Z,4.30
2023-08-31T07:26:17.544Z,4.47
2023-08-31T07:28:44.347Z,4.20
2023-08-31T07:31:11.398Z,3.92
2023-08-31T07:33:38.225Z,4.30
2023-08-31T07:36:07.346Z,3.78
2023-08-31T07:38:34.822Z,4.45
2023-08-31T07:41:02.010Z,4.40
2023-08-31T07:43:28.937Z,3.95
2023-08-31T07:45:55.644Z,3.70
2023-08-31T07:48:23.054Z,3.67
2023-08-31T07:50:50.058Z,3.97
2023-08-31T07:53:18.571Z,3.67
2023-08-31T07:55:55.683Z,3.45
2023-08-31T07:58:23.374Z,3.20
2023-08-31T08:00:50.704Z,3.40
2023-08-31T08:03:17.678Z,3.40
2023-08-31T08:05:44.509Z,3.80
2023-08-31T08:08:12.195Z,3.33
2023-08-31T08:10:39.172Z,3.30
2023-08-31T08:13:06.213Z,3.05
2023-08-31T08:15:33.134Z,3.10
2023-08-31T08:17:59.943Z,3.85
2023-08-31T08:20:26.762Z,3.10
2023-08-31T08:22:53.538Z,3.20
2023-08-31T08:25:23.203Z,3.33
2023-08-31T08:27:50.015Z,2.85
2023-08-31T08:30:16.748Z,2.92
2023-08-31T08:32:44.403Z,3.22
2023-08-31T08:35:11.205Z,2.90
2023-08-31T08:37:38.978Z,2.65
2023-08-31T08:40:06.359Z,2.50
2023-08-31T08:42:42.315Z,2.70
2023-08-31T08:45:17.833Z,2.33
2023-08-31T08:47:45.533Z,2.35
2023-08-31T08:50:15.067Z,1.90
2023-08-31T08:52:42.976Z,2.00
2023-08-31T08:55:10.697Z,2.35
2023-08-31T08:57:38.174Z,2.10
2023-08-31T09:00:06.699Z,2.05
2023-08-31T09:02:33.598Z,1.77
2023-08-31T09:05:00.412Z,1.77
2023-08-31T09:07:31.249Z,1.90
2023-08-31T09:09:57.950Z,1.70
2023-08-31T09:12:25.797Z,1.48
2023-08-31T09:15:02.743Z,1.63
2023-08-31T09:17:40.573Z,1.70
2023-08-31T09:20:08.005Z,1.92
2023-08-31T09:22:35.388Z,1.80
2023-08-31T09:25:02.444Z,1.70
2023-08-31T09:27:29.282Z,1.80
2023-08-31T09:29:57.149Z,2.38
2023-08-31T09:32:23.943Z,1.60
2023-08-31T09:34:54.304Z,1.73
2023-08-31T09:37:26.421Z,2.10
2023-08-31T09:39:54.050Z,1.63
2023-08-31T09:42:21.384Z,1.55
2023-08-31T09:44:50.785Z,1.50
2023-08-31T09:47:21.044Z,1.40
2023-08-31T09:49:48.099Z,1.35
2023-08-31T09:52:16.058Z,1.85
2023-08-31T09:54:45.226Z,1.40
2023-08-31T09:57:14.232Z,1.27
2023-08-31T09:59:41.777Z,1.40
2023-08-31T10:02:10.737Z,1.30
2023-08-31T10:04:38.383Z,1.00
2023-08-31T10:07:07.305Z,0.98
2023-08-31T10:09:34.579Z,1.00
2023-08-31T10:12:04.620Z,1.58
2023-08-31T10:14:31.546Z,1.10
2023-08-31T10:16:59.215Z,1.27
2023-08-31T10:19:27.034Z,0.98
2023-08-31T10:21:54.292Z,1.23
2023-08-31T10:25:00.116Z,1.30
2023-08-31T10:27:28.071Z,1.30
2023-08-31T10:29:54.731Z,1.10
2023-08-31T10:32:22.507Z,1.15
2023-08-31T10:35:22.262Z,1.48
2023-08-31T10:37:50.041Z,1.50
2023-08-31T10:40:17.795Z,1.58
2023-08-31T10:42:48.540Z,1.48
2023-08-31T10:45:15.670Z,1.60
2023-08-31T10:47:45.453Z,1.50
2023-08-31T10:50:22.541Z,1.77
2023-08-31T10:52:50.277Z,1.45
2023-08-31T10:55:17.728Z,1.73
2023-08-31T10:57:44.456Z,1.20
2023-08-31T11:00:12.896Z,1.13
2023-08-31T11:02:42.895Z,1.10
2023-08-31T11:05:17.749Z,1.58
2023-08-31T11:07:45.774Z,0.95
2023-08-31T11:10:21.100Z,1.38
2023-08-31T11:12:49.920Z,1.23
2023-08-31T11:15:21.200Z,1.00
2023-08-31T11:17:49.112Z,1.20
2023-08-31T11:20:18.212Z,1.20
2023-08-31T11:22:48.286Z,1.80
2023-08-31T11:25:35.039Z,1.60
2023-08-31T11:28:06.355Z,1.40
2023-08-31T11:30:34.049Z,1.95
2023-08-31T11:33:12.841Z,0.90
2023-08-31T11:35:42.812Z,1.10
2023-08-31T11:38:09.616Z,1.02
2023-08-31T11:40:38.717Z,0.88
2023-08-31T11:43:08.804Z,0.90
2023-08-31T11:45:37.824Z,0.90
2023-08-31T11:48:05.257Z,1.00
2023-08-31T11:50:32.275Z,1.25
2023-08-31T11:52:59.022Z,1.05
2023-08-31T11:55:25.755Z,0.98
2023-08-31T11:57:55.677Z,1.00
2023-08-31T12:00:23.895Z,1.30
2023-08-31T12:03:00.860Z,1.25
2023-08-31T12:05:45.461Z,1.25
2023-08-31T12:08:12.280Z,1.33
2023-08-31T12:10:42.823Z,1.40
2023-08-31T12:13:11.630Z,1.48
2023-08-31T12:15:38.809Z,1.70
2023-08-31T12:18:12.758Z,1.25
2023-08-31T12:20:52.273Z,1.40
2023-08-31T12:23:22.590Z,2.38
2023-08-31T12:25:53.562Z,1.38
2023-08-31T12:28:21.935Z,1.40
2023-08-31T12:30:53.557Z,1.48
2023-08-31T12:33:21.565Z,1.50
2023-08-31T12:35:50.198Z,1.55
2023-08-31T12:38:16.932Z,1.20
2023-08-31T12:40:43.574Z,1.60
2023-08-31T12:43:11.179Z,1.35
2023-08-31T12:45:38.058Z,1.27
2023-08-31T12:48:06.584Z,1.10
2023-08-31T12:50:33.352Z,0.82
2023-08-31T12:53:00.375Z,1.33
2023-08-31T12:55:27.172Z,1.05
2023-08-31T12:57:53.848Z,1.05
2023-08-31T13:00:20.793Z,1.88
2023-08-31T13:02:48.190Z,1.00
2023-08-31T13:05:15.119Z,1.10
2023-08-31T13:07:41.880Z,1.23
2023-08-31T13:10:08.886Z,1.05
2023-08-31T13:12:35.613Z,0.80
2023-08-31T13:15:02.598Z,1.38
2023-08-31T13:17:29.577Z,1.05
2023-08-31T13:19:58.283Z,1.65
2023-08-31T13:22:25.743Z,0.98
2023-08-31T13:24:53.145Z,0.82
2023-08-31T13:27:20.203Z,1.05
2023-08-31T13:29:46.777Z,0.98
2023-08-31T13:32:13.576Z,1.27
2023-08-31T13:34:40.677Z,1.10
2023-08-31T13:37:07.396Z,1.23
2023-08-31T13:39:37.068Z,1.35
2023-08-31T13:42:04.959Z,1.10
2023-08-31T13:44:32.478Z,1.00
2023-08-31T13:46:59.342Z,0.95
2023-08-31T13:49:26.067Z,1.35
2023-08-31T13:51:52.773Z,1.15
2023-08-31T13:54:19.407Z,1.20
2023-08-31T13:56:46.130Z,0.90
2023-08-31T13:59:12.799Z,0.80
2023-08-31T14:01:39.609Z,0.88
2023-08-31T14:04:07.178Z,1.05
2023-08-31T14:06:33.914Z,0.60
2023-08-31T14:09:00.630Z,0.80
2023-08-31T14:11:30.879Z,1.10
2023-08-31T14:14:12.081Z,1.02
2023-08-31T14:16:39.728Z,0.90
2023-08-31T14:19:07.086Z,0.57
2023-08-31T14:21:33.981Z,1.05
2023-08-31T14:24:00.716Z,1.45
2023-08-31T14:26:27.457Z,1.20
2023-08-31T14:28:55.473Z,1.25
2023-08-31T14:31:22.273Z,0.95
2023-08-31T14:33:49.312Z,1.10
2023-08-31T14:36:17.327Z,1.20
2023-08-31T14:38:44.019Z,1.45
2023-08-31T14:41:12.037Z,1.10
2023-08-31T14:43:38.705Z,1.50
2023-08-31T14:46:05.475Z,1.35
2023-08-31T14:48:33.447Z,1.02
2023-08-31T14:51:01.597Z,1.25
2023-08-31T14:53:28.816Z,1.10
2023-08-31T14:55:55.845Z,1.48
2023-08-31T14:58:22.530Z,1.83
2023-08-31T15:00:49.685Z,1.33
2023-08-31T15:03:17.130Z,1.58
2023-08-31T15:05:44.034Z,1.35
2023-08-31T15:08:12.667Z,1.42
2023-08-31T15:10:40.929Z,1.17
2023-08-31T15:13:07.844Z,1.40
2023-08-31T15:15:34.965Z,1.35
2023-08-31T15:18:01.818Z,1.25
2023-08-31T15:20:28.606Z,1.40
2023-08-31T15:22:55.654Z,1.20
2023-08-31T15:25:23.650Z,1.30
2023-08-31T15:27:50.392Z,1.17
2023-08-31T15:30:17.368Z,1.27
2023-08-31T15:32:44.101Z,1.15
2023-08-31T15:35:13.408Z,1.65
2023-08-31T15:37:46.581Z,1.15
2023-08-31T15:40:13.346Z,1.30
2023-08-31T15:42:40.188Z,1.42
2023-08-31T15:45:07.276Z,1.17
2023-08-31T15:47:34.315Z,1.60
2023-08-31T15:50:01.072Z,1.17
2023-08-31T15:52:27.801Z,1.27
2023-08-31T15:54:55.726Z,1.23
2023-08-31T15:57:22.461Z,2.17
2023-08-31T15:59:49.267Z,1.00
2023-08-31T16:02:17.019Z,1.42
2023-08-31T16:04:45.157Z,1.27
2023-08-31T16:07:13.341Z,0.90
2023-08-31T16:09:40.824Z,0.80
2023-08-31T16:12:07.831Z,1.40
2023-08-31T16:14:37.162Z,2.15
2023-08-31T16:17:04.086Z,1.05
2023-08-31T16:19:33.880Z,1.15
2023-08-31T16:22:03.825Z,1.20
2023-08-31T16:24:30.445Z,1.50
2023-08-31T16:26:57.188Z,1.27
2023-08-31T16:29:24.990Z,1.40
2023-08-31T16:31:51.729Z,0.98
2023-08-31T16:34:18.667Z,1.42
2023-08-31T16:36:45.530Z,1.27
2023-08-31T16:39:12.364Z,1.00
2023-08-31T16:41:40.953Z,1.00
2023-08-31T16:44:07.640Z,1.15
2023-08-31T16:46:34.588Z,1.23
2023-08-31T16:49:01.382Z,1.08
2023-08-31T16:51:28.258Z,1.13
2023-08-31T16:53:55.047Z,0.77
2023-08-31T16:56:21.672Z,0.73
2023-08-31T16:58:48.318Z,1.10
2023-08-31T17:01:15.345Z,1.25
2023-08-31T17:03:42.098Z,1.00
2023-08-31T17:06:10.002Z,1.30
2023-08-31T17:08:36.696Z,1.13
2023-08-31T17:11:12.197Z,1.17
2023-08-31T17:13:39.229Z,1.20
2023-08-31T17:16:12.650Z,1.15
2023-08-31T17:18:40.714Z,1.27
2023-08-31T17:21:07.758Z,1.30
2023-08-31T17:23:34.647Z,2.20
2023-08-31T17:26:01.593Z,1.13
2023-08-31T17:28:29.709Z,1.00
2023-08-31T17:30:57.192Z,0.68
2023-08-31T17:33:25.764Z,1.17
2023-08-31T17:35:53.055Z,0.90
2023-08-31T17:38:19.816Z,0.88
2023-08-31T17:40:50.012Z,1.30
2023-08-31T17:43:17.507Z,1.15
2023-08-31T17:45:44.231Z,0.70
2023-08-31T17:48:10.986Z,1.10
2023-08-31T17:50:37.757Z,1.23
2023-08-31T17:53:04.789Z,1.27
2023-08-31T17:55:32.703Z,1.05
2023-08-31T17:57:59.424Z,0.60
2023-08-31T18:00:26.211Z,0.95
2023-08-31T18:02:53.627Z,1.00
2023-08-31T18:05:23.792Z,1.27
2023-08-31T18:07:51.024Z,1.05
2023-08-31T18:10:19.231Z,1.00
2023-08-31T18:12:46.670Z,1.00
2023-08-31T18:15:14.660Z,1.40
2023-08-31T18:17:41.331Z,0.98
2023-08-31T18:20:09.160Z,1.35
2023-08-31T18:22:36.113Z,0.88
2023-08-31T18:25:04.487Z,0.95
2023-08-31T18:27:31.239Z,1.13
2023-08-31T18:30:00.530Z,1.33
2023-08-31T18:32:27.453Z,0.95
2023-08-31T18:34:54.743Z,0.90
2023-08-31T18:37:21.466Z,1.10
2023-08-31T18:39:48.274Z,1.20
2023-08-31T18:42:15.366Z,1.20
2023-08-31T18:44:42.213Z,1.20
2023-08-31T18:47:08.880Z,1.10
2023-08-31T18:49:36.141Z,1.45
2023-08-31T18:52:03.090Z,1.15
2023-08-31T18:54:29.898Z,1.23
2023-08-31T18:56:56.646Z,1.20
2023-08-31T18:59:23.279Z,1.13
2023-08-31T19:01:51.355Z,1.25
2023-08-31T19:04:18.086Z,1.30
2023-08-31T19:06:45.007Z,1.27
2023-08-31T19:09:11.717Z,0.98
2023-08-31T19:11:39.221Z,1.00
2023-08-31T19:14:05.921Z,1.58
2023-08-31T19:16:33.802Z,1.13
2023-08-31T19:19:01.418Z,1.30
2023-08-31T19:21:28.161Z,1.10
2023-08-31T19:23:54.890Z,1.60
2023-08-31T19:26:22.610Z,1.55
2023-08-31T19:28:49.276Z,1.20
2023-08-31T19:31:15.988Z,1.70
2023-08-31T19:33:42.673Z,1.48
2023-08-31T19:36:11.249Z,1.30
2023-08-31T19:38:40.003Z,1.30
2023-08-31T19:41:07.329Z,1.30
2023-08-31T19:43:33.971Z,1.20
2023-08-31T19:46:02.108Z,1.55
2023-08-31T19:48:29.072Z,1.35
2023-08-31T19:51:05.070Z,1.38
2023-08-31T19:53:32.172Z,1.42
2023-08-31T19:55:58.971Z,1.42
2023-08-31T19:58:25.680Z,1.27
2023-08-31T20:00:52.864Z,1.25
2023-08-31T20:03:19.672Z,1.40
2023-08-31T20:05:46.560Z,1.17
2023-08-31T20:08:13.410Z,1.60
2023-08-31T20:10:40.275Z,1.30
2023-08-31T20:13:07.133Z,1.20
2023-08-31T20:15:34.309Z,1.55
2023-08-31T20:18:01.171Z,2.38
2023-08-31T20:20:31.458Z,1.60
2023-08-31T20:22:58.490Z,1.63
2023-08-31T20:25:25.191Z,1.60
2023-08-31T20:27:51.929Z,1.80
2023-08-31T20:30:19.568Z,1.75
2023-08-31T20:32:46.766Z,1.85
2023-08-31T20:35:15.219Z,1.80
2023-08-31T20:37:42.284Z,1.75
2023-08-31T20:40:10.120Z,1.90
2023-08-31T20:42:39.570Z,1.58
2023-08-31T20:45:08.191Z,1.60
2023-08-31T20:47:34.905Z,1.50
2023-08-31T20:50:03.012Z,1.38
2023-08-31T20:52:31.385Z,1.60
2023-08-31T20:54:59.237Z,2.00
2023-08-31T20:57:26.496Z,1.52
2023-08-31T20:59:53.196Z,1.42
2023-08-31T21:02:19.963Z,2.05
2023-08-31T21:04:47.759Z,1.80
2023-08-31T21:07:14.511Z,1.70
2023-08-31T21:09:42.089Z,2.33
2023-08-31T21:12:08.931Z,2.05
2023-08-31T21:14:35.657Z,1.85
2023-08-31T21:17:02.581Z,1.90
2023-08-31T21:19:29.330Z,1.92
2023-08-31T21:21:56.008Z,1.65
2023-08-31T21:24:22.670Z,1.67
2023-08-31T21:26:49.805Z,1.90
2023-08-31T21:29:16.471Z,3.15
2023-08-31T21:31:43.316Z,1.95
2023-08-31T21:34:09.964Z,1.85
2023-08-31T21:36:36.608Z,1.75
2023-08-31T21:39:03.896Z,2.10
2023-08-31T21:41:30.638Z,1.73
2023-08-31T21:43:57.424Z,1.42
2023-08-31T21:46:24.146Z,1.85
2023-08-31T21:48:53.387Z,1.98
2023-08-31T21:51:20.487Z,1.77
2023-08-31T21:53:47.276Z,1.60
2023-08-31T21:56:13.901Z,1.60
2023-08-31T21:58:41.040Z,2.05
2023-08-31T22:01:07.742Z,1.65
2023-08-31T22:03:34.615Z,1.70
2023-08-31T22:06:10.520Z,1.73
2023-08-31T22:08:37.581Z,1.70
2023-08-31T22:11:05.298Z,1.73
2023-08-31T22:13:32.193Z,1.80
2023-08-31T22:15:59.190Z,2.00
2023-08-31T22:18:26.060Z,1.67
2023-08-31T22:20:52.839Z,2.30
2023-08-31T22:23:19.842Z,2.00
2023-08-31T22:25:46.548Z,2.00
2023-08-31T22:28:14.235Z,1.90
2023-08-31T22:30:42.076Z,1.83
2023-08-31T22:33:11.875Z,2.03
2023-08-31T22:35:38.698Z,2.00
2023-08-31T22:38:05.372Z,2.28
2023-08-31T22:40:31.989Z,2.00
2023-08-31T22:42:58.576Z,2.20
2023-08-31T22:45:25.304Z,1.90
2023-08-31T22:47:52.242Z,2.58
2023-08-31T22:50:18.879Z,2.20
2023-08-31T22:52:45.591Z,1.77
2023-08-31T22:55:12.321Z,2.00
2023-08-31T22:57:39.297Z,1.83
2023-08-31T23:00:07.778Z,1.85
2023-08-31T23:02:34.706Z,2.20
2023-08-31T23:05:01.590Z,1.90
2023-08-31T23:07:28.374Z,2.55
2023-08-31T23:09:55.031Z,2.35
2023-08-31T23:12:21.889Z,2.10
2023-08-31T23:14:48.532Z,2.25
2023-08-31T23:17:15.766Z,2.33
2023-08-31T23:19:42.485Z,2.88
2023-08-31T23:22:09.477Z,2.78
2023-08-31T23:24:36.307Z,2.40
2023-08-31T23:27:03.482Z,2.25
2023-08-31T23:29:30.260Z,2.60
2023-08-31T23:31:57.029Z,2.30
2023-08-31T23:34:23.665Z,2.60
2023-08-31T23:36:51.822Z,3.03
2023-08-31T23:39:18.473Z,2.33
2023-08-31T23:41:45.090Z,2.70
2023-08-31T23:44:11.694Z,2.72
2023-08-31T23:46:38.641Z,2.45
2023-08-31T23:49:05.339Z,2.70
2023-08-31T23:51:32.839Z,2.60
2023-08-31T23:53:59.628Z,2.90
2023-08-31T23:56:26.272Z,2.70
2023-08-31T23:58:52.899Z,3.58
